Chilcoot, CA (96105)

4:54 PM PDT on September 23, 2014 (GMT -0700)
Main Street Loyalton | Change Station
CLOSE
Current Station
Personal Weather Station
Location: Loyalton, CA
Elevation: 4964 ft
Nearby Weather Stations
Active Advisory: Fire Weather Warning

Elev 4964 ft 39.68 °N, 120.24 °W | Updated 3 seconds ago

Partly Cloudy
Partly Cloudy
76.0 °F
Feels Like 76 °F
N
0.0
Wind Variable Wind from SW
Gusts 20.0 mph

Today
High -- | Low -- °F
--% Chance of Precip.
Yesterday
High -- | Low -- °F
Precip. -- in
6:49 AM 6:56 PM
Waning Crescent, 0% visible
Pressure 30.07 in
Visibility 5.0 miles
Clouds Clear
Heat Index 76 °F
Dew Point 31 °F
Humidity 19%
Rainfall 0.00 in
Snow Depth 0 in , 0 in , 0 in
UV 2 out of 12
Pollen 7.00 out of 12
Air Quality Not available.
Flu Activity Not available.
METAR KRTS 232335Z AUTO 26016KT 5SM HZ CLR 25/02 A3007 RMK AO2

More Conditions Fewer Conditions

Pressure 30.07 in
Visibility 5.0 miles
Clouds Clear
Heat Index 76 °F
Dew Point 31 °F
Humidity 19%
Rainfall 0.00 in
Snow Depth 0 in , 0 in , 0 in
UV 2 out of 12
Pollen 7.00 out of 12
Air Quality Not available.
Flu Activity Not available.
METAR KRTS 232335Z AUTO 26016KT 5SM HZ CLR 25/02 A3007 RMK AO2

More Conditions Fewer Conditions

10-Day Weather Forecast

Almanac

Astronomy

Sep. 23, 2014 Rise Set
Actual Time 6:49 AM PDT 6:56 PM PDT
Civil Twilight 6:22 AM PDT 7:23 PM PDT
Nautical Twilight 5:51 AM PDT 7:54 PM PDT
Astronomical Twilight 5:18 AM PDT 8:26 PM PDT
Moon 6:18 AM PDT 6:37 PM PDT
Length of Visible Light 13h 00m
Length of Day
12h 06m
Tomorrow will be 2m 35s shorter.
Waning Crescent, 0% of the Moon is Illuminated
Today
Waning Crescent
Sep 24
New
Oct 1
First Quarter
Oct 8
Full
Oct 15
Last Quarter

Today's Extremes

State Highs State Lows

Community

WunderPhotos

Upload Photos

1,755,821 photos uploaded!

WunderBlogs® & News

Nearby

Snow Depth

Station Depth Elevation
Adin Mountain 0 in 6200 ft
Summit Meadow 0 in 9122 ft
Leavitt Meadows 0 in 7200 ft
CSS Lab 2 in 6900 ft
Echo Peak 0 in 7800 ft

Earthquake Activity

City Distance Mag. Time & Date
No recent earthquake activity has been reported nearby.
Minimum magnitude displayed is 2.5.

Coastal Water Temperatures

Place Temperature
No Stations Reporting

Nearby Weather Stations